Time;durP1;ratioP1;P1;durP2;ratioP2;P2;SDS_P1;SDS_P2;PMS_P1;PMS_P2;Temp;Humidity;BMP_temperature;BMP_pressure;BME280_temperature;BME280_humidity;BME280_pressure;Samples;Min_cycle;Max_cycle;Signal;HPM_P1;HPM_P2
2021/12/26 00:01:01;;;;;;;16.33;15.13;;;2.20;99.90;;;;;;4934784;29;20047;-77
2021/12/26 00:03:30;;;;;;;17.67;16.10;;;2.20;99.90;;;;;;4934350;29;20043;-81
2021/12/26 00:06:00;;;;;;;17.20;15.70;;;2.20;99.90;;;;;;4934567;29;20042;-78
2021/12/26 00:08:27;;;;;;;17.67;16.20;;;2.20;99.90;;;;;;4934685;29;20035;-78
2021/12/26 00:10:54;;;;;;;18.48;16.48;;;2.20;99.90;;;;;;4933778;29;20043;-77
2021/12/26 00:13:21;;;;;;;17.83;16.08;;;2.10;99.90;;;;;;4917359;29;20092;-77
2021/12/26 00:15:48;;;;;;;18.70;16.63;;;2.20;99.90;;;;;;4933594;29;20043;-77
2021/12/26 00:18:15;;;;;;;17.80;16.42;;;2.20;99.90;;;;;;4936382;29;20036;-78
2021/12/26 00:20:41;;;;;;;18.38;16.77;;;2.10;99.90;;;;;;4935862;29;20027;-77
2021/12/26 00:23:09;;;;;;;19.63;17.88;;;2.20;99.90;;;;;;4922449;29;20036;-78
2021/12/26 00:25:35;;;;;;;19.20;17.50;;;2.20;99.90;;;;;;4939886;29;20036;-78
2021/12/26 00:28:02;;;;;;;18.75;17.02;;;2.20;99.90;;;;;;4920919;29;20040;-77
2021/12/26 00:30:28;;;;;;;18.05;16.25;;;2.20;99.90;;;;;;4934504;29;20476;-78
2021/12/26 00:32:54;;;;;;;21.70;19.73;;;2.20;99.90;;;;;;4916843;29;20043;-77
2021/12/26 00:35:23;;;;;;;19.38;17.60;;;2.20;99.90;;;;;;4934203;29;20044;-77
2021/12/26 00:37:49;;;;;;;19.70;18.15;;;2.20;99.90;;;;;;4933836;29;20062;-77
2021/12/26 00:40:19;;;;;;;19.23;17.65;;;2.20;99.90;;;;;;4934530;29;20036;-77
2021/12/26 00:42:46;;;;;;;22.40;20.48;;;2.20;99.90;;;;;;4933506;29;20381;-78
2021/12/26 00:45:13;;;;;;;19.17;17.58;;;2.10;99.90;;;;;;4933848;29;20481;-78
2021/12/26 00:47:41;;;;;;;21.35;19.40;;;2.10;99.90;;;;;;4937023;29;20028;-78
2021/12/26 00:50:11;;;;;;;23.30;20.92;;;2.10;99.90;;;;;;4937787;29;20063;-78
2021/12/26 00:52:37;;;;;;;22.85;20.50;;;2.10;99.90;;;;;;4937276;29;20036;-78
2021/12/26 00:55:08;;;;;;;21.92;20.08;;;2.10;99.90;;;;;;4920435;29;20051;-77
2021/12/26 00:57:35;;;;;;;22.75;20.63;;;2.10;99.90;;;;;;4937027;29;20050;-77
2021/12/26 01:00:01;;;;;;;23.02;20.65;;;2.10;99.90;;;;;;4920107;29;20035;-79
2021/12/26 01:02:28;;;;;;;22.20;20.42;;;2.00;99.90;;;;;;4935481;29;20055;-77
2021/12/26 01:04:54;;;;;;;24.63;22.17;;;2.00;99.90;;;;;;4935949;29;20063;-80
2021/12/26 01:07:37;;;;;;;23.38;21.17;;;2.10;99.90;;;;;;4935740;29;20039;-78
2021/12/26 01:10:05;;;;;;;23.05;20.85;;;2.00;99.90;;;;;;4935834;29;20059;-78
2021/12/26 01:12:32;;;;;;;24.05;21.85;;;2.00;99.90;;;;;;4935538;29;20043;-80
2021/12/26 01:15:04;;;;;;;23.60;21.58;;;2.00;99.90;;;;;;4935429;29;20043;-78
2021/12/26 01:17:35;;;;;;;25.02;22.83;;;2.00;99.90;;;;;;4919593;29;20064;-81
2021/12/26 01:20:36;;;;;;;24.35;21.20;;;2.00;99.90;;;;;;4935621;29;20051;-78
2021/12/26 01:23:03;;;;;;;25.17;22.13;;;2.00;99.90;;;;;;4937368;29;20346;-77
2021/12/26 01:25:29;;;;;;;22.02;20.15;;;2.00;99.90;;;;;;4935003;29;20054;-78
2021/12/26 01:27:56;;;;;;;21.15;19.33;;;2.00;99.90;;;;;;4936205;29;20035;-78
2021/12/26 01:30:24;;;;;;;23.33;19.77;;;2.00;99.90;;;;;;4935046;29;20048;-78
2021/12/26 01:32:54;;;;;;;23.70;21.23;;;1.90;99.90;;;;;;4919028;29;20593;-78
2021/12/26 01:35:38;;;;;;;22.67;20.75;;;1.90;99.90;;;;;;4927126;29;20051;-79
2021/12/26 01:38:19;;;;;;;20.02;18.50;;;1.90;99.90;;;;;;4919447;29;20053;-80
2021/12/26 01:41:10;;;;;;;21.85;19.88;;;2.00;99.90;;;;;;4936841;29;20051;-78
2021/12/26 01:43:56;;;;;;;22.40;20.25;;;2.00;99.90;;;;;;4934386;29;20044;-77
2021/12/26 01:46:31;;;;;;;22.33;20.30;;;1.90;99.90;;;;;;4935200;29;20052;-78
2021/12/26 01:49:17;;;;;;;21.75;19.85;;;2.00;99.90;;;;;;4918135;29;20417;-77
2021/12/26 01:51:46;;;;;;;22.38;20.23;;;1.90;99.90;;;;;;4934020;29;20048;-78
2021/12/26 01:54:27;;;;;;;23.08;20.80;;;2.00;99.90;;;;;;4919450;29;20108;-78
2021/12/26 01:56:54;;;;;;;23.17;20.92;;;1.90;99.90;;;;;;4934116;29;20074;-78
2021/12/26 01:59:20;;;;;;;20.05;18.13;;;2.00;99.90;;;;;;4936008;29;20035;-77
2021/12/26 02:01:49;;;;;;;23.08;20.50;;;2.00;99.90;;;;;;4933937;29;20373;-78
2021/12/26 02:04:15;;;;;;;21.30;19.60;;;2.00;99.90;;;;;;4919227;29;20050;-78
2021/12/26 02:06:42;;;;;;;21.38;19.48;;;2.00;99.90;;;;;;4935779;29;20035;-78
2021/12/26 02:09:12;;;;;;;24.25;19.95;;;1.90;99.90;;;;;;4919389;29;20052;-78
2021/12/26 02:11:40;;;;;;;20.77;18.92;;;2.00;99.90;;;;;;4935358;29;20044;-79
2021/12/26 02:14:08;;;;;;;21.73;19.83;;;1.90;99.90;;;;;;4934691;29;20044;-78
2021/12/26 02:16:54;;;;;;;19.90;18.15;;;1.90;99.90;;;;;;4935091;29;20046;-78
2021/12/26 02:19:21;;;;;;;20.77;18.95;;;1.90;99.90;;;;;;4934546;29;20370;-77
2021/12/26 02:22:07;;;;;;;21.55;19.73;;;1.90;99.90;;;;;;4934780;29;20044;-78
2021/12/26 02:24:57;;;;;;;22.05;20.02;;;1.90;99.90;;;;;;4918956;29;20066;-79
2021/12/26 02:27:31;;;;;;;20.27;18.42;;;1.90;99.90;;;;;;4936032;29;20047;-77
2021/12/26 02:30:09;;;;;;;20.77;19.00;;;1.90;99.90;;;;;;4918198;29;20050;-78
2021/12/26 02:32:37;;;;;;;21.92;19.63;;;1.90;99.90;;;;;;4933975;29;20359;-80
2021/12/26 02:35:04;;;;;;;20.83;18.88;;;1.90;99.90;;;;;;4918270;29;20048;-78
2021/12/26 02:37:30;;;;;;;21.55;19.30;;;1.80;99.90;;;;;;4934179;29;20044;-78
2021/12/26 02:39:57;;;;;;;20.35;18.40;;;1.90;99.90;;;;;;4917877;29;20059;-76
2021/12/26 02:42:24;;;;;;;20.75;18.48;;;1.80;99.90;;;;;;4918210;29;20040;-77
2021/12/26 02:44:53;;;;;;;21.10;19.23;;;1.90;99.90;;;;;;4933323;29;20044;-78
2021/12/26 02:47:37;;;;;;;20.65;18.83;;;1.90;99.90;;;;;;4933401;29;20047;-78
2021/12/26 02:50:07;;;;;;;20.75;18.75;;;1.90;99.90;;;;;;4935071;29;20052;-78
2021/12/26 02:52:33;;;;;;;22.45;20.35;;;1.90;99.90;;;;;;4933600;29;20047;-78
2021/12/26 02:55:00;;;;;;;23.13;20.75;;;1.90;99.90;;;;;;4917257;29;20074;-78
2021/12/26 02:57:27;;;;;;;23.42;18.85;;;1.90;99.90;;;;;;4933961;29;20051;-78
2021/12/26 02:59:54;;;;;;;20.48;18.23;;;1.90;99.90;;;;;;4917325;29;20397;-78
2021/12/26 03:02:20;;;;;;;20.55;18.55;;;1.90;99.90;;;;;;4949098;29;20043;-77
2021/12/26 03:04:47;;;;;;;22.60;19.70;;;1.90;99.90;;;;;;4937912;29;20039;-78
2021/12/26 03:07:13;;;;;;;21.77;19.70;;;1.90;99.90;;;;;;4918136;29;20497;-78
2021/12/26 03:09:48;;;;;;;21.05;19.25;;;1.90;99.90;;;;;;4917275;29;20047;-80
2021/12/26 03:12:14;;;;;;;21.13;19.00;;;1.80;99.90;;;;;;4919567;29;20066;-78
2021/12/26 03:14:41;;;;;;;21.40;18.38;;;1.80;99.90;;;;;;4934695;29;20035;-80
2021/12/26 03:17:09;;;;;;;21.95;19.98;;;1.80;99.90;;;;;;4933623;29;20040;-78
2021/12/26 03:19:36;;;;;;;21.73;18.77;;;1.80;99.90;;;;;;4935231;29;20032;-79
2021/12/26 03:22:03;;;;;;;21.25;19.05;;;1.80;99.90;;;;;;4932763;29;20319;-78
2021/12/26 03:24:30;;;;;;;20.33;18.52;;;1.90;99.90;;;;;;4917757;29;20051;-78
2021/12/26 03:27:02;;;;;;;19.60;17.63;;;1.80;99.90;;;;;;4933077;29;20048;-78
2021/12/26 03:29:29;;;;;;;20.92;19.00;;;1.80;99.90;;;;;;4918097;29;20040;-78
2021/12/26 03:31:58;;;;;;;20.10;18.25;;;1.90;99.90;;;;;;4916889;29;20047;-78
2021/12/26 03:34:25;;;;;;;20.20;18.15;;;1.80;99.90;;;;;;4919561;29;20047;-78
2021/12/26 03:36:53;;;;;;;19.88;18.02;;;1.90;99.90;;;;;;4934111;29;20159;-78
2021/12/26 03:39:23;;;;;;;22.40;20.20;;;1.80;99.90;;;;;;4933671;29;20439;-78
2021/12/26 03:41:50;;;;;;;21.40;18.92;;;1.80;99.90;;;;;;4932872;29;20048;-79
2021/12/26 03:44:17;;;;;;;21.60;19.63;;;1.80;99.90;;;;;;4933048;29;20043;-79
2021/12/26 03:46:44;;;;;;;27.73;21.50;;;1.80;99.90;;;;;;4916877;29;20047;-81
2021/12/26 03:49:11;;;;;;;24.83;21.17;;;1.80;99.90;;;;;;4901825;29;20059;-79
2021/12/26 03:51:38;;;;;;;21.67;18.88;;;1.90;99.90;;;;;;4917539;29;20051;-78
2021/12/26 03:54:06;;;;;;;30.52;20.23;;;1.90;99.90;;;;;;4916764;29;20054;-78
2021/12/26 03:56:32;;;;;;;21.33;19.33;;;1.90;99.90;;;;;;4933198;29;20059;-78
2021/12/26 03:59:06;;;;;;;21.52;19.60;;;1.90;99.90;;;;;;4916645;29;20501;-78
2021/12/26 04:01:33;;;;;;;20.55;18.85;;;1.90;99.90;;;;;;4917344;29;20050;-78
2021/12/26 04:04:00;;;;;;;21.35;18.98;;;1.90;99.90;;;;;;4916437;29;20050;-79
2021/12/26 04:06:26;;;;;;;20.90;19.00;;;1.80;99.90;;;;;;4917413;29;20457;-78
2021/12/26 04:08:53;;;;;;;20.38;18.52;;;1.90;99.90;;;;;;4916259;29;20056;-78
2021/12/26 04:11:19;;;;;;;22.10;20.05;;;1.90;99.90;;;;;;4917472;29;20393;-78
2021/12/26 04:13:46;;;;;;;22.15;20.23;;;1.90;99.90;;;;;;4916118;29;20048;-80
2021/12/26 04:16:12;;;;;;;20.60;18.63;;;1.90;99.90;;;;;;4932941;29;20051;-78
2021/12/26 04:18:39;;;;;;;21.85;19.73;;;1.90;99.90;;;;;;4917100;29;20051;-79
2021/12/26 04:21:08;;;;;;;21.80;19.05;;;1.90;99.90;;;;;;4917881;29;20040;-79
2021/12/26 04:23:41;;;;;;;23.48;21.02;;;1.90;99.90;;;;;;4921054;29;20050;-77
2021/12/26 04:26:07;;;;;;;20.33;18.42;;;1.90;99.90;;;;;;4937441;29;20120;-80
2021/12/26 04:28:33;;;;;;;21.95;19.40;;;1.90;99.90;;;;;;4936223;29;20046;-80
2021/12/26 04:30:59;;;;;;;22.38;20.17;;;1.90;99.90;;;;;;4920128;29;20044;-80
2021/12/26 04:33:26;;;;;;;22.38;20.05;;;1.90;99.90;;;;;;4920622;29;20051;-80
2021/12/26 04:35:52;;;;;;;22.65;20.38;;;1.90;99.90;;;;;;4937056;29;20051;-80
2021/12/26 04:38:19;;;;;;;21.42;19.67;;;1.90;99.90;;;;;;4920821;29;20051;-80
2021/12/26 04:40:45;;;;;;;20.90;18.77;;;1.90;99.90;;;;;;4920353;29;20040;-82
2021/12/26 04:43:35;;;;;;;21.60;19.63;;;1.80;99.90;;;;;;4924254;29;20051;-80
2021/12/26 04:46:24;;;;;;;22.38;20.10;;;1.90;99.90;;;;;;4937816;29;20393;-80
2021/12/26 04:48:55;;;;;;;23.48;19.90;;;1.90;99.90;;;;;;4919893;29;20499;-80
2021/12/26 04:51:23;;;;;;;22.08;19.60;;;1.80;99.90;;;;;;4920904;29;20055;-81
2021/12/26 04:53:54;;;;;;;23.73;21.42;;;1.90;99.90;;;;;;4920014;29;20047;-80
2021/12/26 04:56:21;;;;;;;22.75;20.38;;;1.90;99.90;;;;;;4920495;29;20398;-80
2021/12/26 04:58:47;;;;;;;21.13;19.27;;;1.90;99.90;;;;;;4935385;29;20043;-82
2021/12/26 05:01:14;;;;;;;24.08;21.70;;;1.80;99.90;;;;;;4936819;29;20047;-80
2021/12/26 05:03:41;;;;;;;23.55;21.23;;;1.90;99.90;;;;;;4937535;29;20032;-80
2021/12/26 05:06:08;;;;;;;22.50;20.40;;;1.90;99.90;;;;;;4934823;29;20050;-80
2021/12/26 05:08:34;;;;;;;23.88;21.38;;;1.90;99.90;;;;;;4937601;29;20059;-80
2021/12/26 05:11:02;;;;;;;22.02;19.85;;;1.90;99.90;;;;;;4936650;29;20386;-80
2021/12/26 05:13:28;;;;;;;24.50;22.45;;;1.90;99.90;;;;;;4937334;29;20028;-80
2021/12/26 05:15:54;;;;;;;22.98;20.85;;;1.90;99.90;;;;;;4936314;29;20051;-80
2021/12/26 05:18:20;;;;;;;22.58;20.33;;;1.90;99.90;;;;;;4937380;29;20024;-80
2021/12/26 05:20:51;;;;;;;;;;;1.90;99.90;;;;;;4919922;29;20047;-80
2021/12/26 05:23:18;;;;;;;23.45;21.02;;;1.90;99.90;;;;;;4920209;29;19910;-81
2021/12/26 05:25:44;;;;;;;22.27;19.85;;;1.90;99.90;;;;;;4935484;29;20048;-80
2021/12/26 05:28:10;;;;;;;21.67;19.55;;;1.90;99.90;;;;;;4936458;29;20040;-80
2021/12/26 05:30:37;;;;;;;20.90;19.08;;;1.90;99.90;;;;;;4937301;29;20036;-80
2021/12/26 05:33:19;;;;;;;24.02;21.75;;;1.80;99.90;;;;;;4919059;29;20040;-80
2021/12/26 05:35:48;;;;;;;22.67;20.45;;;1.80;99.90;;;;;;4934730;29;20060;-82
2021/12/26 05:38:14;;;;;;;22.40;20.38;;;1.90;99.90;;;;;;4935115;29;20048;-80
2021/12/26 05:40:44;;;;;;;21.23;16.77;;;1.80;99.90;;;;;;4919631;29;20044;-81
2021/12/26 05:43:11;;;;;;;24.45;22.17;;;1.90;99.90;;;;;;4934481;29;20052;-82
2021/12/26 05:45:38;;;;;;;21.15;19.25;;;1.80;99.90;;;;;;4920361;29;20050;-81
2021/12/26 05:48:17;;;;;;;25.27;22.50;;;1.80;99.90;;;;;;4953294;29;20039;-81
2021/12/26 05:50:44;;;;;;;27.08;19.75;;;1.80;99.90;;;;;;4938551;29;20035;-81
2021/12/26 05:53:30;;;;;;;22.70;20.70;;;1.80;99.90;;;;;;4942975;29;20047;-81
2021/12/26 05:55:57;;;;;;;25.63;23.15;;;1.80;99.90;;;;;;4918788;29;20067;-81
2021/12/26 05:58:23;;;;;;;24.70;21.95;;;1.80;99.90;;;;;;4935262;29;20044;-81
2021/12/26 06:00:49;;;;;;;24.77;22.25;;;1.80;99.90;;;;;;4936287;29;20054;-81
2021/12/26 06:03:16;;;;;;;24.75;22.30;;;1.80;99.90;;;;;;4919442;29;20051;-81
2021/12/26 06:05:42;;;;;;;23.45;21.17;;;1.80;99.90;;;;;;4934941;29;20047;-81
2021/12/26 06:08:08;;;;;;;27.65;22.10;;;1.80;99.90;;;;;;4933708;29;20062;-81
2021/12/26 06:10:38;;;;;;;24.75;22.30;;;1.80;99.90;;;;;;4919274;29;20047;-80
2021/12/26 06:13:04;;;;;;;24.08;21.75;;;1.80;99.90;;;;;;4934286;29;20048;-81
2021/12/26 06:15:31;;;;;;;25.35;22.98;;;1.80;99.90;;;;;;4918948;29;20058;-81
2021/12/26 06:17:57;;;;;;;26.65;24.08;;;1.70;99.90;;;;;;4917909;29;20044;-81
2021/12/26 06:20:41;;;;;;;24.42;22.05;;;1.70;99.90;;;;;;4936254;29;20401;-81
2021/12/26 06:23:36;;;;;;;27.75;25.15;;;1.70;99.90;;;;;;4935754;29;20374;-81
2021/12/26 06:26:25;;;;;;;24.77;22.35;;;1.80;99.90;;;;;;4896638;29;20485;-81
2021/12/26 06:28:51;;;;;;;27.92;25.05;;;1.70;99.90;;;;;;4918533;29;20040;-82
2021/12/26 06:31:41;;;;;;;25.30;23.17;;;1.70;99.90;;;;;;4930273;29;20051;-81
2021/12/26 06:34:33;;;;;;;26.67;24.15;;;1.80;99.90;;;;;;4906220;29;20043;-80
2021/12/26 06:37:18;;;;;;;26.42;23.98;;;1.80;99.90;;;;;;4935489;29;20508;-81
2021/12/26 06:40:03;;;;;;;30.27;24.73;;;1.80;99.90;;;;;;4934852;29;20043;-81
2021/12/26 06:42:50;;;;;;;28.80;25.98;;;1.80;99.90;;;;;;4935914;29;20054;-80
2021/12/26 06:45:49;;;;;;;26.55;23.88;;;1.80;99.90;;;;;;4906228;29;20434;-80
2021/12/26 06:48:27;;;;;;;28.13;25.20;;;1.80;99.90;;;;;;4936176;29;20394;-79
2021/12/26 06:50:54;;;;;;;27.38;24.58;;;1.80;99.90;;;;;;4930254;29;20409;-83
2021/12/26 06:53:21;;;;;;;41.47;25.05;;;1.70;99.90;;;;;;4916208;29;20044;-79
2021/12/26 06:55:47;;;;;;;28.00;24.65;;;1.70;99.90;;;;;;4916708;29;20040;-79
2021/12/26 06:58:15;;;;;;;28.05;25.17;;;1.70;99.90;;;;;;4915780;29;20032;-79
2021/12/26 07:00:42;;;;;;;27.15;24.35;;;1.70;99.90;;;;;;4915083;29;20470;-79
2021/12/26 07:03:10;;;;;;;28.33;25.30;;;1.70;99.90;;;;;;4899444;29;20048;-79
2021/12/26 07:05:37;;;;;;;29.73;26.75;;;1.70;99.90;;;;;;4915243;29;20048;-79
2021/12/26 07:08:10;;;;;;;28.23;25.48;;;1.70;99.90;;;;;;4914333;29;20394;-80
2021/12/26 07:10:44;;;;;;;29.67;26.67;;;1.70;99.90;;;;;;4914905;29;20059;-80
2021/12/26 07:13:10;;;;;;;28.27;25.42;;;1.70;99.90;;;;;;4915684;29;20051;-79
2021/12/26 07:15:37;;;;;;;30.77;27.27;;;1.70;99.90;;;;;;4899153;29;20051;-79
2021/12/26 07:18:05;;;;;;;36.78;32.90;;;1.70;99.90;;;;;;4914196;29;20044;-79
2021/12/26 07:20:35;;;;;;;29.98;27.10;;;1.70;99.90;;;;;;4914888;29;20044;-78
2021/12/26 07:23:19;;;;;;;32.55;29.27;;;1.60;99.90;;;;;;4922253;29;20485;-79
2021/12/26 07:25:47;;;;;;;37.30;29.27;;;1.60;99.90;;;;;;4921793;29;20035;-79
2021/12/26 07:28:17;;;;;;;27.92;25.17;;;1.70;99.90;;;;;;4932709;29;20048;-79
2021/12/26 07:31:06;;;;;;;30.90;27.45;;;1.60;99.90;;;;;;4917177;29;20039;-77
2021/12/26 07:33:33;;;;;;;30.80;27.70;;;1.60;99.90;;;;;;4917883;29;20039;-77
2021/12/26 07:36:04;;;;;;;30.95;27.60;;;1.60;99.90;;;;;;4916418;29;20052;-77
2021/12/26 07:38:36;;;;;;;34.22;30.88;;;1.60;99.90;;;;;;4917977;29;20413;-77
2021/12/26 07:41:02;;;;;;;32.13;28.92;;;1.70;99.90;;;;;;4916569;29;20048;-78
2021/12/26 07:43:34;;;;;;;30.75;27.75;;;1.70;99.90;;;;;;4933167;29;20044;-77
2021/12/26 07:46:18;;;;;;;32.22;29.08;;;1.70;99.90;;;;;;4933939;29;20055;-77
2021/12/26 07:48:47;;;;;;;31.77;28.35;;;1.70;99.90;;;;;;4934936;29;20402;-77
2021/12/26 07:51:33;;;;;;;33.58;30.17;;;1.70;99.90;;;;;;4953585;29;20043;-76
2021/12/26 07:54:20;;;;;;;34.03;30.42;;;1.70;99.90;;;;;;4959686;28;20054;-77
2021/12/26 07:57:16;;;;;;;33.53;30.30;;;1.70;99.90;;;;;;4883882;29;20127;-77
2021/12/26 08:00:00;;;;;;;34.05;30.75;;;1.80;99.90;;;;;;4959482;28;20050;-77
2021/12/26 08:02:46;;;;;;;33.75;30.67;;;1.80;99.90;;;;;;4953496;29;20050;-77
2021/12/26 08:05:38;;;;;;;36.33;32.92;;;1.80;99.90;;;;;;4923742;29;20051;-76
2021/12/26 08:08:15;;;;;;;36.50;32.42;;;1.80;99.90;;;;;;4935759;29;20054;-77
2021/12/26 08:10:42;;;;;;;34.28;30.67;;;1.80;99.90;;;;;;4920476;29;20039;-77
2021/12/26 08:13:08;;;;;;;36.03;32.40;;;1.80;99.90;;;;;;4953002;29;20031;-76
2021/12/26 08:15:34;;;;;;;34.30;30.63;;;1.80;99.90;;;;;;4953480;29;20039;-77
2021/12/26 08:18:00;;;;;;;35.42;31.35;;;1.80;99.90;;;;;;4935128;29;20066;-77
2021/12/26 08:20:26;;;;;;;35.58;31.95;;;1.80;99.90;;;;;;4953623;29;20039;-76
2021/12/26 08:22:53;;;;;;;35.00;31.50;;;1.80;99.90;;;;;;4953627;29;20476;-77
2021/12/26 08:25:19;;;;;;;36.03;32.40;;;1.80;99.90;;;;;;4952811;29;20035;-77
2021/12/26 08:27:45;;;;;;;36.95;33.40;;;1.90;99.90;;;;;;4953311;29;20047;-77
2021/12/26 08:30:12;;;;;;;35.45;32.00;;;1.90;99.90;;;;;;4952549;29;20035;-77
2021/12/26 08:32:40;;;;;;;36.05;31.75;;;1.90;99.90;;;;;;4960476;29;20388;-77
2021/12/26 08:35:08;;;;;;;36.05;32.53;;;1.90;99.90;;;;;;4961022;29;20361;-79
2021/12/26 08:37:37;;;;;;;36.13;32.70;;;1.90;99.90;;;;;;4953901;29;20134;-76
2021/12/26 08:40:04;;;;;;;34.97;31.33;;;1.90;99.90;;;;;;4951961;29;20051;-79
2021/12/26 08:42:31;;;;;;;36.40;32.63;;;1.90;99.90;;;;;;4953207;29;20047;-77
2021/12/26 08:44:59;;;;;;;35.47;31.75;;;1.90;99.90;;;;;;4953108;29;20031;-80
2021/12/26 08:47:26;;;;;;;34.80;31.42;;;1.90;99.90;;;;;;4953258;29;20457;-77
2021/12/26 08:49:53;;;;;;;37.25;33.25;;;2.00;99.90;;;;;;4948304;29;20050;-76
2021/12/26 08:52:19;;;;;;;35.38;31.92;;;1.90;99.90;;;;;;4947596;29;20031;-76
2021/12/26 08:54:45;;;;;;;39.75;33.78;;;1.90;99.90;;;;;;4939474;29;20023;-76
2021/12/26 08:57:11;;;;;;;37.72;33.80;;;1.90;99.90;;;;;;4920204;29;20059;-76
2021/12/26 08:59:40;;;;;;;37.03;33.15;;;1.90;99.90;;;;;;4937604;29;20474;-76
2021/12/26 09:02:07;;;;;;;38.80;32.95;;;2.00;99.90;;;;;;4962714;28;20031;-77
2021/12/26 09:04:35;;;;;;;38.05;34.17;;;2.00;99.90;;;;;;4944927;29;20484;-76
2021/12/26 09:07:04;;;;;;;35.38;31.83;;;2.00;99.90;;;;;;4948551;28;20039;-81
2021/12/26 09:09:30;;;;;;;38.83;34.90;;;2.10;99.90;;;;;;4955192;29;20039;-76
2021/12/26 09:11:57;;;;;;;36.28;32.55;;;2.10;99.90;;;;;;4943688;29;20469;-76
2021/12/26 09:14:24;;;;;;;36.63;33.17;;;2.10;99.90;;;;;;4943046;29;20035;-75
2021/12/26 09:16:50;;;;;;;38.65;33.95;;;2.10;99.90;;;;;;4938013;29;20043;-76
2021/12/26 09:19:16;;;;;;;38.40;34.33;;;2.10;99.90;;;;;;4939780;29;20035;-76
2021/12/26 09:21:43;;;;;;;37.40;33.53;;;2.10;99.90;;;;;;4949739;28;20035;-76
2021/12/26 09:24:09;;;;;;;37.22;33.03;;;2.20;99.90;;;;;;4974572;28;20027;-76
2021/12/26 09:26:35;;;;;;;39.22;33.70;;;2.20;99.90;;;;;;4957783;28;20392;-76
2021/12/26 09:29:02;;;;;;;39.72;34.45;;;2.20;99.90;;;;;;4947738;28;20035;-77
2021/12/26 09:31:29;;;;;;;34.17;30.88;;;2.10;99.90;;;;;;4945798;29;20465;-76
2021/12/26 09:33:55;;;;;;;38.05;34.55;;;2.10;99.90;;;;;;4946652;29;20043;-76
2021/12/26 09:36:21;;;;;;;37.92;34.03;;;2.10;99.90;;;;;;4945651;29;20046;-76
2021/12/26 09:38:48;;;;;;;37.83;34.22;;;2.20;99.90;;;;;;4952023;28;20050;-76
2021/12/26 09:41:14;;;;;;;37.85;33.63;;;2.20;99.90;;;;;;4942764;29;20051;-77
2021/12/26 09:43:41;;;;;;;33.70;30.40;;;2.10;99.90;;;;;;4935979;29;20039;-76
2021/12/26 09:46:07;;;;;;;40.72;34.80;;;2.10;99.90;;;;;;4944978;29;20038;-77
2021/12/26 09:48:33;;;;;;;36.97;32.97;;;2.10;99.90;;;;;;4955909;29;20043;-76
2021/12/26 09:51:00;;;;;;;37.20;33.17;;;2.10;99.90;;;;;;4936010;29;20055;-76
2021/12/26 09:53:26;;;;;;;39.90;35.97;;;2.20;99.90;;;;;;4933331;29;20404;-76
2021/12/26 09:55:52;;;;;;;36.63;32.80;;;2.20;99.90;;;;;;4936439;29;20051;-76
2021/12/26 09:58:20;;;;;;;34.75;31.15;;;2.30;99.90;;;;;;4935376;29;20040;-76
2021/12/26 10:00:46;;;;;;;36.38;32.90;;;2.30;99.90;;;;;;4936342;29;20043;-76
2021/12/26 10:03:15;;;;;;;38.55;34.53;;;2.30;99.90;;;;;;4935865;29;20035;-76
2021/12/26 10:06:02;;;;;;;38.58;34.67;;;2.30;99.90;;;;;;4936325;29;20043;-76
2021/12/26 10:08:31;;;;;;;36.67;33.05;;;2.30;99.90;;;;;;4936235;29;20397;-76
2021/12/26 10:11:15;;;;;;;38.55;34.97;;;2.30;99.90;;;;;;4936491;29;20140;-76
2021/12/26 10:13:56;;;;;;;35.92;32.30;;;2.40;99.90;;;;;;4918712;29;20040;-76
2021/12/26 10:16:26;;;;;;;36.55;33.13;;;2.40;99.90;;;;;;4935572;29;20036;-76
2021/12/26 10:18:53;;;;;;;36.00;32.65;;;2.40;99.90;;;;;;4932699;29;20522;-76
2021/12/26 10:21:25;;;;;;;40.13;35.63;;;2.50;99.90;;;;;;4927740;29;20394;-76
2021/12/26 10:23:53;;;;;;;37.30;33.60;;;2.50;99.90;;;;;;4900752;29;20040;-76
2021/12/26 10:26:25;;;;;;;36.97;33.50;;;2.60;99.90;;;;;;4916512;29;20048;-76
2021/12/26 10:29:08;;;;;;;36.65;32.72;;;2.70;99.90;;;;;;4917524;29;20466;-76
2021/12/26 10:31:36;;;;;;;36.42;32.55;;;2.70;99.90;;;;;;4915937;29;20040;-76
2021/12/26 10:34:03;;;;;;;42.33;33.47;;;2.70;99.90;;;;;;4916291;29;20048;-76
2021/12/26 10:36:45;;;;;;;35.47;31.90;;;2.80;99.90;;;;;;4926170;29;20063;-76
2021/12/26 10:39:17;;;;;;;34.78;31.27;;;2.80;99.90;;;;;;4922566;29;20040;-76
2021/12/26 10:41:51;;;;;;;30.30;27.33;;;2.90;99.90;;;;;;4916306;29;20051;-76
2021/12/26 10:44:24;;;;;;;33.42;28.60;;;3.00;99.90;;;;;;4915313;29;20040;-76
2021/12/26 10:46:54;;;;;;;32.95;29.48;;;3.00;99.90;;;;;;4915374;29;20052;-76
2021/12/26 10:49:25;;;;;;;31.38;28.45;;;3.00;99.90;;;;;;4921591;29;20416;-76
2021/12/26 10:51:52;;;;;;;29.98;26.98;;;3.10;99.90;;;;;;4935570;29;20043;-76
2021/12/26 10:54:25;;;;;;;31.02;27.77;;;3.20;99.90;;;;;;4934851;29;20042;-77
2021/12/26 10:57:03;;;;;;;30.88;27.80;;;3.00;99.90;;;;;;4937340;29;20043;-77
2021/12/26 10:59:29;;;;;;;32.30;28.92;;;3.10;99.90;;;;;;4943234;29;20042;-77
2021/12/26 11:01:56;;;;;;;32.15;28.95;;;3.00;99.90;;;;;;4940287;29;20042;-78
2021/12/26 11:04:24;;;;;;;35.45;29.42;;;3.10;99.90;;;;;;4936904;29;20046;-84
2021/12/26 11:07:05;;;;;;;30.80;27.33;;;3.00;99.90;;;;;;4936717;29;20055;-82
2021/12/26 11:09:31;;;;;;;38.53;29.45;;;3.00;99.90;;;;;;4936718;29;20373;-84
2021/12/26 11:12:06;;;;;;;37.00;27.95;;;2.90;99.90;;;;;;4918635;29;20050;-85
2021/12/26 11:15:03;;;;;;;32.60;29.10;;;3.00;99.90;;;;;;4936198;29;20469;-84
2021/12/26 11:17:32;;;;;;;35.45;29.95;;;3.00;99.90;;;;;;4935452;29;20213;-84
2021/12/26 11:19:59;;;;;;;34.22;30.80;;;3.00;99.90;;;;;;4935696;29;20389;-84
2021/12/26 11:22:26;;;;;;;37.67;33.65;;;3.00;99.90;;;;;;4934637;29;20031;-80
2021/12/26 11:24:53;;;;;;;32.35;29.15;;;3.10;99.90;;;;;;4918297;29;20375;-83
2021/12/26 11:27:21;;;;;;;32.60;29.42;;;3.00;99.90;;;;;;4938366;29;20055;-79
2021/12/26 11:29:48;;;;;;;35.05;31.50;;;3.10;99.90;;;;;;4935358;29;20039;-80
2021/12/26 11:32:19;;;;;;;33.85;30.60;;;3.00;99.90;;;;;;4933971;29;20038;-82
2021/12/26 11:34:47;;;;;;;36.17;30.67;;;3.10;99.90;;;;;;4937358;29;20389;-80
2021/12/26 11:37:14;;;;;;;34.22;30.88;;;3.00;99.90;;;;;;4939500;29;20051;-81
2021/12/26 11:40:18;;;;;;;37.47;31.63;;;3.00;99.90;;;;;;4939576;29;20044;-81
2021/12/26 11:43:03;;;;;;;36.58;32.20;;;3.00;99.90;;;;;;4938316;29;20043;-80
2021/12/26 11:46:24;;;;;;;33.38;29.77;;;3.10;99.90;;;;;;4936885;29;20054;-81
2021/12/26 11:49:39;;;;;;;34.85;31.20;;;3.10;99.90;;;;;;4921030;29;20062;-74
2021/12/26 11:52:54;;;;;;;32.53;29.20;;;3.10;99.90;;;;;;4929469;29;20070;-80
2021/12/26 11:55:54;;;;;;;31.27;28.08;;;3.10;99.90;;;;;;4917590;29;20048;-81
2021/12/26 11:58:39;;;;;;;31.93;29.00;;;3.10;99.90;;;;;;4933939;29;20052;-81
2021/12/26 12:01:14;;;;;;;46.88;31.08;;;3.00;99.90;;;;;;4935066;29;20282;-82
2021/12/26 12:03:41;;;;;;;31.92;28.70;;;3.00;99.90;;;;;;4935150;29;20054;-82
2021/12/26 12:06:07;;;;;;;33.88;30.75;;;3.10;99.90;;;;;;4936485;29;20031;-81
2021/12/26 12:08:35;;;;;;;34.67;31.17;;;3.10;99.90;;;;;;4918333;29;20055;-83
2021/12/26 12:11:08;;;;;;;34.30;30.90;;;3.20;99.90;;;;;;4935983;29;20048;-81
2021/12/26 12:13:47;;;;;;;33.40;29.98;;;3.20;99.90;;;;;;4936108;29;20032;-80
2021/12/26 12:16:22;;;;;;;32.80;29.30;;;3.10;99.90;;;;;;4935262;29;20048;-82
2021/12/26 12:18:49;;;;;;;31.77;28.67;;;3.10;99.90;;;;;;4937022;29;20048;-83
2021/12/26 12:21:23;;;;;;;32.30;28.88;;;3.20;99.90;;;;;;4919361;29;20381;-82
2021/12/26 12:24:10;;;;;;;33.35;29.80;;;3.20;99.90;;;;;;4935909;29;20094;-78
2021/12/26 12:26:41;;;;;;;33.53;29.38;;;3.30;99.90;;;;;;4952952;29;20031;-78
2021/12/26 12:29:09;;;;;;;33.35;30.02;;;3.30;99.90;;;;;;4943339;29;20040;-79
2021/12/26 12:31:36;;;;;;;31.75;28.42;;;3.40;99.90;;;;;;4934197;29;20027;-81
2021/12/26 12:34:12;;;;;;;31.55;27.33;;;3.30;99.90;;;;;;4917826;29;20055;-80
2021/12/26 12:36:45;;;;;;;31.65;28.10;;;3.30;99.90;;;;;;4934325;29;20046;-80
2021/12/26 12:39:16;;;;;;;34.47;28.90;;;3.30;99.90;;;;;;4934239;29;20405;-78
2021/12/26 12:41:48;;;;;;;31.98;28.67;;;3.30;99.90;;;;;;4935437;29;20031;-82
2021/12/26 12:44:26;;;;;;;34.30;30.75;;;3.20;99.90;;;;;;4938037;29;20048;-79
2021/12/26 12:47:05;;;;;;;40.03;32.58;;;3.30;99.90;;;;;;4940766;29;20028;-81
2021/12/26 12:49:39;;;;;;;32.78;29.35;;;3.30;99.90;;;;;;4944977;29;20485;-81
2021/12/26 12:52:06;;;;;;;32.90;29.63;;;3.30;99.90;;;;;;4938978;29;20046;-81
2021/12/26 12:54:33;;;;;;;33.08;29.88;;;3.30;99.90;;;;;;4939194;29;20043;-81
2021/12/26 12:57:03;;;;;;;34.17;30.67;;;3.30;99.90;;;;;;4938713;29;20409;-81
2021/12/26 12:59:38;;;;;;;34.70;31.50;;;3.30;99.90;;;;;;4938290;29;20031;-81